Time;durP1;ratioP1;P1;durP2;ratioP2;P2;SDS_P1;SDS_P2;PMS_P1;PMS_P2;Temp;Humidity;BMP_temperature;BMP_pressure;BME280_temperature;BME280_humidity;BME280_pressure;Samples;Min_cycle;Max_cycle;Signal;HPM_P1;HPM_P2
2022/11/03 00:00:02;;;;;;;8.43;3.22;;;11.60;99.90;;;;;;4939979;28;89618;-27
2022/11/03 00:02:27;;;;;;;9.18;2.90;;;11.60;99.90;;;;;;4941061;28;89177;-29
2022/11/03 00:04:53;;;;;;;11.05;3.13;;;11.60;99.90;;;;;;4940029;28;90225;-30
2022/11/03 00:07:20;;;;;;;8.13;3.80;;;11.60;99.90;;;;;;4927253;28;89466;-29
2022/11/03 00:09:46;;;;;;;6.90;3.42;;;11.60;99.90;;;;;;4938412;28;90100;-30
2022/11/03 00:12:11;;;;;;;11.10;3.67;;;11.60;99.90;;;;;;4939970;28;88913;-28
2022/11/03 00:14:37;;;;;;;8.02;3.10;;;11.60;99.90;;;;;;4941106;28;88190;-32
2022/11/03 00:17:02;;;;;;;7.63;3.75;;;11.60;99.90;;;;;;4939185;28;90416;-30
2022/11/03 00:19:28;;;;;;;11.13;3.20;;;11.60;99.90;;;;;;4940150;28;90175;-31
2022/11/03 00:21:54;;;;;;;12.05;3.58;;;11.70;99.90;;;;;;4939576;28;89404;-33
2022/11/03 00:24:19;;;;;;;15.77;4.55;;;11.70;99.90;;;;;;4940219;28;90469;-30
2022/11/03 00:26:45;;;;;;;6.75;3.72;;;11.70;99.90;;;;;;4940091;28;90119;-31
2022/11/03 00:29:12;;;;;;;12.90;4.20;;;11.70;99.90;;;;;;4939444;28;89436;-30
2022/11/03 00:31:40;;;;;;;10.40;4.00;;;11.80;99.90;;;;;;4941167;28;89832;-30
2022/11/03 00:34:06;;;;;;;10.60;3.77;;;11.70;99.90;;;;;;4940026;28;90303;-30
2022/11/03 00:36:35;;;;;;;12.05;3.58;;;11.70;99.90;;;;;;4939381;28;88997;-30
2022/11/03 00:39:00;;;;;;;;;;;11.70;99.90;;;;;;4939379;28;89450;-28
2022/11/03 00:41:27;;;;;;;13.38;5.43;;;11.60;99.90;;;;;;4941430;28;89287;-28
2022/11/03 00:43:53;;;;;;;12.70;4.07;;;11.60;99.90;;;;;;4939494;28;91345;-31
2022/11/03 00:46:20;;;;;;;10.98;3.38;;;11.70;99.90;;;;;;4939945;28;89702;-33
2022/11/03 00:48:46;;;;;;;12.57;5.45;;;11.60;99.90;;;;;;4938972;28;89631;-29
2022/11/03 00:51:15;;;;;;;11.02;3.25;;;11.60;99.90;;;;;;4940303;28;88822;-29
2022/11/03 00:53:57;;;;;;;13.52;3.42;;;11.60;99.90;;;;;;4938909;28;90148;-33
2022/11/03 00:56:29;;;;;;;7.20;3.65;;;11.60;99.90;;;;;;4939706;28;89825;-34
2022/11/03 00:58:56;;;;;;;12.02;4.03;;;11.60;99.90;;;;;;4939754;28;89955;-30
2022/11/03 01:01:24;;;;;;;12.90;4.03;;;11.60;99.90;;;;;;4940261;28;89378;-30
2022/11/03 01:06:50;;;;;;;13.80;4.20;;;11.60;99.90;;;;;;4938963;28;89468;-29
2022/11/03 01:09:17;;;;;;;11.27;4.43;;;11.60;99.90;;;;;;4938844;28;90239;-32
2022/11/03 01:11:58;;;;;;;12.63;3.72;;;11.50;99.90;;;;;;4939214;28;89819;-31
2022/11/03 01:14:27;;;;;;;9.25;3.88;;;11.60;99.90;;;;;;4938984;28;90623;-31
2022/11/03 01:16:53;;;;;;;14.13;4.90;;;11.60;99.90;;;;;;4939135;28;90829;-29
2022/11/03 01:19:18;;;;;;;9.23;3.05;;;11.60;99.90;;;;;;4939915;28;90696;-30
2022/11/03 01:21:44;;;;;;;10.43;2.92;;;11.60;99.90;;;;;;4939347;28;87708;-32
2022/11/03 01:24:10;;;;;;;10.35;3.40;;;11.60;99.90;;;;;;4939045;28;90389;-31
2022/11/03 01:26:35;;;;;;;13.13;4.13;;;11.60;99.90;;;;;;4939750;28;90044;-28
2022/11/03 01:29:01;;;;;;;12.23;4.22;;;11.50;99.90;;;;;;4938457;28;89537;-31
2022/11/03 01:31:27;;;;;;;10.27;3.28;;;11.50;99.90;;;;;;4942205;28;90469;-29
2022/11/03 01:33:54;;;;;;;7.15;3.90;;;11.40;99.90;;;;;;4942001;28;90299;-33
2022/11/03 01:36:20;;;;;;;14.23;4.00;;;11.40;99.90;;;;;;4942670;28;89573;-28
2022/11/03 01:38:46;;;;;;;20.65;3.65;;;11.40;99.90;;;;;;4941818;28;90278;-29
2022/11/03 01:41:22;;;;;;;8.95;3.45;;;11.40;99.90;;;;;;4943035;28;89179;-32
2022/11/03 01:44:10;;;;;;;12.43;3.92;;;11.50;99.90;;;;;;4942438;28;90316;-29
2022/11/03 01:47:10;;;;;;;13.38;3.30;;;11.40;99.90;;;;;;4941587;28;90383;-30
2022/11/03 01:49:59;;;;;;;9.32;3.25;;;11.40;99.90;;;;;;4915225;28;88374;-30
2022/11/03 01:52:32;;;;;;;7.22;3.53;;;11.40;99.90;;;;;;4942510;28;89544;-29
2022/11/03 01:55:03;;;;;;;15.20;4.35;;;11.50;99.90;;;;;;4942446;28;88986;-28
2022/11/03 01:57:35;;;;;;;7.10;3.58;;;11.50;99.90;;;;;;4942056;28;90570;-32
2022/11/03 02:00:02;;;;;;;11.50;3.78;;;11.50;99.90;;;;;;4942265;28;90507;-30
2022/11/03 02:02:27;;;;;;;13.02;4.20;;;11.50;99.90;;;;;;4942919;28;88811;-32
2022/11/03 02:04:54;;;;;;;8.13;3.33;;;11.50;99.90;;;;;;4940430;28;91210;-33
2022/11/03 02:07:42;;;;;;;6.00;3.08;;;11.50;99.90;;;;;;4928952;28;89571;-31
2022/11/03 02:10:08;;;;;;;12.40;3.58;;;11.40;99.90;;;;;;4942399;28;89746;-29
2022/11/03 02:12:35;;;;;;;9.32;3.85;;;11.40;99.90;;;;;;4942557;28;89204;-30
2022/11/03 02:15:06;;;;;;;10.10;3.85;;;11.40;99.90;;;;;;4941788;28;90280;-33
2022/11/03 02:17:33;;;;;;;13.75;2.88;;;11.40;99.90;;;;;;4942243;28;90403;-30
2022/11/03 02:20:03;;;;;;;10.90;3.75;;;11.40;99.90;;;;;;4941913;28;89275;-31
2022/11/03 02:22:53;;;;;;;12.02;3.80;;;11.40;99.90;;;;;;4941266;28;90407;-31
2022/11/03 02:25:40;;;;;;;9.57;3.60;;;11.40;99.90;;;;;;4941400;28;90285;-30
2022/11/03 02:28:06;;;;;;;13.07;3.15;;;11.40;99.90;;;;;;4941520;28;88779;-29
2022/11/03 02:30:48;;;;;;;12.50;4.15;;;11.40;99.90;;;;;;4942261;28;89535;-29
2022/11/03 02:33:24;;;;;;;12.30;4.07;;;11.50;99.90;;;;;;4942072;28;87635;-29
2022/11/03 02:35:56;;;;;;;9.70;3.63;;;11.60;99.90;;;;;;4941436;28;90194;-31
2022/11/03 02:38:25;;;;;;;16.98;4.38;;;11.50;99.90;;;;;;4941284;28;89800;-29
2022/11/03 02:40:57;;;;;;;14.52;5.72;;;11.50;99.90;;;;;;4941039;28;89441;-28
2022/11/03 02:43:24;;;;;;;10.93;3.20;;;11.50;99.90;;;;;;4941960;28;87833;-30
2022/11/03 02:45:51;;;;;;;12.60;4.53;;;11.50;99.90;;;;;;4941329;28;90351;-31
2022/11/03 02:48:18;;;;;;;12.27;4.93;;;11.50;99.90;;;;;;4940991;28;89916;-31
2022/11/03 02:50:45;;;;;;;7.40;4.93;;;11.40;99.90;;;;;;4940850;28;90735;-33
2022/11/03 02:53:12;;;;;;;14.63;4.43;;;11.40;99.90;;;;;;4939046;28;88784;-31
2022/11/03 02:56:02;;;;;;;7.75;4.45;;;11.30;99.90;;;;;;4941494;28;89024;-30
2022/11/03 02:59:12;;;;;;;7.80;3.58;;;11.40;99.90;;;;;;4941323;28;89542;-31
2022/11/03 03:01:47;;;;;;;6.22;3.25;;;11.40;99.90;;;;;;4938720;28;89427;-31
2022/11/03 03:04:35;;;;;;;10.90;4.85;;;11.40;99.90;;;;;;4941766;28;89674;-28
2022/11/03 03:07:09;;;;;;;13.45;4.68;;;11.40;99.90;;;;;;4928889;28;89891;-31
2022/11/03 03:09:42;;;;;;;7.53;4.15;;;11.40;99.90;;;;;;4940248;28;89775;-28
2022/11/03 03:12:10;;;;;;;9.32;4.13;;;11.40;99.90;;;;;;4942367;28;89582;-29
2022/11/03 03:14:40;;;;;;;16.50;4.53;;;11.40;99.90;;;;;;4940983;28;89754;-28
2022/11/03 03:17:38;;;;;;;14.32;4.78;;;11.40;99.90;;;;;;4927659;28;90180;-28
2022/11/03 03:20:16;;;;;;;8.95;4.03;;;11.50;99.90;;;;;;4911481;28;89697;-28
2022/11/03 03:23:02;;;;;;;;;;;11.50;99.90;;;;;;4941946;28;88945;-28
2022/11/03 03:25:51;;;;;;;10.75;3.63;;;11.50;99.90;;;;;;4910458;28;88036;-30
2022/11/03 03:28:31;;;;;;;9.27;4.43;;;11.40;99.90;;;;;;4940401;28;90138;-30
2022/11/03 03:31:00;;;;;;;10.88;4.43;;;11.40;99.90;;;;;;4940871;28;89951;-31
2022/11/03 03:33:27;;;;;;;;;;;11.40;99.90;;;;;;4941041;28;89218;-29
2022/11/03 03:35:55;;;;;;;12.05;4.25;;;11.40;99.90;;;;;;4941949;28;88694;-31
2022/11/03 03:38:29;;;;;;;9.40;4.05;;;11.50;99.90;;;;;;4940526;28;90401;-31
2022/11/03 03:40:58;;;;;;;13.15;4.93;;;11.40;99.90;;;;;;4939666;28;90017;-31
2022/11/03 03:43:25;;;;;;;;;;;11.50;99.90;;;;;;4941254;28;90060;-30
2022/11/03 03:45:53;;;;;;;18.95;4.72;;;11.40;99.90;;;;;;4942212;28;88861;-33
2022/11/03 03:48:19;;;;;;;8.82;4.03;;;11.40;99.90;;;;;;4940960;28;90410;-31
2022/11/03 03:50:48;;;;;;;16.30;5.47;;;11.40;99.90;;;;;;4940120;28;89531;-31
2022/11/03 03:53:16;;;;;;;13.75;4.95;;;11.40;99.90;;;;;;4939442;28;91300;-32
2022/11/03 03:55:46;;;;;;;13.73;5.43;;;11.30;99.90;;;;;;4940083;28;87608;-30
2022/11/03 03:58:13;;;;;;;11.52;4.10;;;11.30;99.90;;;;;;4940672;28;90179;-31
2022/11/03 04:00:39;;;;;;;15.50;4.40;;;11.40;99.90;;;;;;4940924;28;89988;-31
2022/11/03 04:03:11;;;;;;;12.30;4.20;;;11.40;99.90;;;;;;4939938;28;89586;-31
2022/11/03 04:05:37;;;;;;;12.20;4.30;;;11.40;99.90;;;;;;4940182;28;90105;-31
2022/11/03 04:08:03;;;;;;;8.55;4.40;;;11.40;99.90;;;;;;4940469;28;90790;-28
2022/11/03 04:10:28;;;;;;;6.60;3.95;;;11.40;99.90;;;;;;4940502;28;89872;-29
2022/11/03 04:23:45;;;;;;;10.25;3.75;;;11.50;99.90;;;;;;4927392;28;89680;-31
2022/11/03 04:26:16;;;;;;;8.30;3.38;;;11.50;99.90;;;;;;4940538;28;89105;-33
2022/11/03 04:28:42;;;;;;;13.07;4.38;;;11.50;99.90;;;;;;4939633;28;89569;-32
2022/11/03 04:31:12;;;;;;;10.45;3.50;;;11.50;99.90;;;;;;4940241;28;90567;-29
2022/11/03 04:33:38;;;;;;;10.27;3.85;;;11.40;99.90;;;;;;4940380;28;90590;-31
2022/11/03 04:36:09;;;;;;;13.35;3.55;;;11.40;99.90;;;;;;4939685;28;88710;-31
2022/11/03 04:38:36;;;;;;;8.98;4.00;;;11.30;99.90;;;;;;4986121;22;90390;-32
2022/11/03 04:41:11;;;;;;;8.43;3.58;;;11.20;99.90;;;;;;4999003;28;90405;-32
2022/11/03 04:43:37;;;;;;;9.38;3.65;;;11.10;99.90;;;;;;4999081;28;90513;-30
2022/11/03 04:46:04;;;;;;;12.38;3.45;;;11.10;99.90;;;;;;4999327;28;89034;-31
2022/11/03 04:48:30;;;;;;;15.00;4.25;;;11.20;99.90;;;;;;4998635;28;90336;-31
2022/11/03 04:51:01;;;;;;;9.40;3.97;;;11.10;99.90;;;;;;4999173;28;89652;-30
2022/11/03 04:53:32;;;;;;;7.32;4.25;;;11.10;99.90;;;;;;4999491;28;89852;-30
2022/11/03 04:55:58;;;;;;;8.80;4.88;;;11.10;99.90;;;;;;4985168;28;90333;-31
2022/11/03 04:58:31;;;;;;;12.57;4.55;;;11.00;99.90;;;;;;4999104;28;90034;-29
2022/11/03 05:00:58;;;;;;;8.63;4.40;;;11.00;99.90;;;;;;4997144;28;89636;-29
2022/11/03 05:03:33;;;;;;;7.78;3.53;;;11.00;99.90;;;;;;4987066;28;89973;-29
2022/11/03 05:06:08;;;;;;;13.85;4.95;;;11.10;99.90;;;;;;5002398;28;89338;-29
2022/11/03 05:08:34;;;;;;;7.05;3.42;;;11.10;99.90;;;;;;5002681;28;90329;-32
2022/11/03 05:11:00;;;;;;;8.43;3.97;;;11.00;99.90;;;;;;5002002;28;89652;-31
2022/11/03 05:13:27;;;;;;;9.70;3.63;;;11.00;99.90;;;;;;5002311;28;90498;-32
2022/11/03 05:16:02;;;;;;;5.40;3.53;;;11.10;99.90;;;;;;5002610;28;88040;-30
2022/11/03 05:18:34;;;;;;;12.13;3.42;;;11.10;99.90;;;;;;5002452;28;90318;-31
2022/11/03 05:21:12;;;;;;;10.10;4.65;;;11.10;99.90;;;;;;5002456;28;89154;-28
2022/11/03 05:23:40;;;;;;;10.13;4.40;;;11.10;99.90;;;;;;5001629;28;89842;-29
2022/11/03 05:26:10;;;;;;;;;;;11.10;99.90;;;;;;5002937;28;87810;-30
2022/11/03 05:28:42;;;;;;;13.30;4.90;;;11.20;99.90;;;;;;5003176;28;89575;-29
2022/11/03 05:31:35;;;;;;;19.48;4.18;;;11.20;99.90;;;;;;5003080;28;89698;-30
2022/11/03 05:34:11;;;;;;;18.55;4.70;;;11.20;99.90;;;;;;4998719;28;89607;-31
2022/11/03 05:36:37;;;;;;;11.57;4.15;;;11.20;99.90;;;;;;5002380;28;89375;-30
2022/11/03 05:39:28;;;;;;;13.65;4.75;;;11.20;99.90;;;;;;5001551;28;90038;-30
2022/11/03 05:41:54;;;;;;;18.13;4.55;;;11.20;99.90;;;;;;4998652;28;89533;-31
2022/11/03 05:44:35;;;;;;;10.27;4.38;;;11.20;99.90;;;;;;5002055;28;89080;-28
2022/11/03 05:47:02;;;;;;;13.38;4.90;;;11.20;99.90;;;;;;5001385;28;90280;-29
2022/11/03 05:49:28;;;;;;;8.75;3.78;;;11.10;99.90;;;;;;5001417;28;90332;-30
2022/11/03 05:51:54;;;;;;;9.23;3.78;;;11.10;99.90;;;;;;5001553;28;90199;-29
2022/11/03 05:54:28;;;;;;;4.80;3.67;;;11.20;99.90;;;;;;5001409;28;89118;-29
2022/11/03 05:56:55;;;;;;;6.93;3.63;;;11.20;99.90;;;;;;5001677;28;89084;-33
2022/11/03 05:59:26;;;;;;;18.97;4.77;;;11.20;99.90;;;;;;5001853;28;90713;-29
2022/11/03 06:01:54;;;;;;;18.88;3.95;;;11.10;99.90;;;;;;4992039;28;89620;-32
2022/11/03 06:04:27;;;;;;;5.88;3.42;;;11.30;99.90;;;;;;4997469;28;89129;-32
2022/11/03 06:07:01;;;;;;;12.63;4.28;;;11.20;99.90;;;;;;5001413;28;89242;-29
2022/11/03 06:09:28;;;;;;;10.55;4.20;;;11.20;99.90;;;;;;5001338;28;91507;-29
2022/11/03 06:11:56;;;;;;;7.05;4.15;;;11.20;99.90;;;;;;5000842;28;91278;-30
2022/11/03 06:14:24;;;;;;;7.72;3.83;;;11.20;99.90;;;;;;5000709;28;90248;-30
2022/11/03 06:16:53;;;;;;;9.82;4.03;;;11.20;99.90;;;;;;5001446;28;90045;-30
2022/11/03 06:19:30;;;;;;;11.23;4.20;;;11.20;99.90;;;;;;5001877;28;90987;-28
2022/11/03 06:22:10;;;;;;;15.20;4.25;;;11.10;99.90;;;;;;5001663;28;89667;-28
2022/11/03 06:24:36;;;;;;;12.05;4.05;;;11.10;99.90;;;;;;5001441;28;89870;-30
2022/11/03 06:27:02;;;;;;;9.45;4.07;;;11.10;99.90;;;;;;4999735;28;89142;-31
2022/11/03 06:29:31;;;;;;;9.35;4.38;;;11.10;99.90;;;;;;5001238;28;90436;-29
2022/11/03 06:31:56;;;;;;;16.35;4.20;;;11.00;99.90;;;;;;4998353;28;89536;-31
2022/11/03 06:34:46;;;;;;;17.33;5.38;;;11.00;99.90;;;;;;4979611;28;89533;-30
2022/11/03 06:37:22;;;;;;;11.98;3.58;;;11.00;99.90;;;;;;5000752;28;89348;-31
2022/11/03 06:39:48;;;;;;;15.25;4.85;;;11.00;99.90;;;;;;4999307;28;90280;-30
2022/11/03 06:42:15;;;;;;;7.47;3.75;;;11.00;99.90;;;;;;5000713;28;89505;-35
2022/11/03 06:44:44;;;;;;;15.60;3.90;;;10.90;99.90;;;;;;5000814;28;89986;-31
2022/11/03 06:47:28;;;;;;;14.57;4.90;;;11.10;99.90;;;;;;5001185;28;90308;-33
2022/11/03 06:50:00;;;;;;;9.18;3.90;;;11.10;99.90;;;;;;4999318;28;90099;-28
2022/11/03 06:52:26;;;;;;;14.95;4.60;;;11.10;99.90;;;;;;5000860;28;90458;-27
2022/11/03 06:54:57;;;;;;;12.80;3.63;;;11.10;99.90;;;;;;5000163;28;89382;-29
2022/11/03 06:57:23;;;;;;;9.27;4.32;;;11.10;99.90;;;;;;5000704;28;88253;-29
2022/11/03 06:59:50;;;;;;;11.60;3.67;;;11.10;99.90;;;;;;5000676;28;90132;-32
2022/11/03 07:02:51;;;;;;;8.30;4.37;;;11.10;99.90;;;;;;4987802;28;90976;-31
2022/11/03 07:05:23;;;;;;;10.73;4.15;;;11.10;99.90;;;;;;4990146;28;89737;-31
2022/11/03 07:07:52;;;;;;;14.75;5.18;;;11.10;99.90;;;;;;5000254;28;89046;-29
2022/11/03 07:10:18;;;;;;;16.85;5.47;;;11.10;99.90;;;;;;4993371;28;91214;-33
2022/11/03 07:12:44;;;;;;;14.40;4.43;;;11.10;99.90;;;;;;4996139;28;89760;-29
2022/11/03 07:15:27;;;;;;;10.93;4.40;;;11.10;99.90;;;;;;4985169;28;89888;-30
2022/11/03 07:17:53;;;;;;;10.18;5.45;;;11.10;99.90;;;;;;4997663;28;89192;-29
2022/11/03 07:20:19;;;;;;;6.25;3.92;;;11.10;99.90;;;;;;4996728;28;90310;-29
2022/11/03 07:22:46;;;;;;;9.40;4.55;;;11.10;99.90;;;;;;4996550;28;89520;-29
2022/11/03 07:25:20;;;;;;;8.55;4.03;;;11.20;99.90;;;;;;4997787;28;89904;-31
2022/11/03 07:27:51;;;;;;;11.63;4.28;;;11.20;99.90;;;;;;4994788;28;90913;-28
2022/11/03 07:30:21;;;;;;;14.18;4.35;;;11.20;99.90;;;;;;4997257;28;89919;-30
2022/11/03 07:32:56;;;;;;;7.75;3.90;;;11.20;99.90;;;;;;4996225;28;89947;-30
2022/11/03 07:35:33;;;;;;;7.95;4.10;;;11.20;99.90;;;;;;4997596;28;89591;-31
2022/11/03 07:38:28;;;;;;;10.27;4.88;;;11.30;99.90;;;;;;4997561;28;89215;-32
2022/11/03 07:40:56;;;;;;;11.20;5.68;;;11.30;99.90;;;;;;4996395;28;90271;-29
2022/11/03 07:43:29;;;;;;;11.23;4.50;;;11.30;99.90;;;;;;4996498;28;90265;-29
2022/11/03 07:45:56;;;;;;;13.32;5.25;;;11.40;99.90;;;;;;4996642;28;89541;-30
2022/11/03 07:48:23;;;;;;;12.00;4.45;;;11.40;99.90;;;;;;4997261;28;89017;-32
2022/11/03 07:50:51;;;;;;;9.98;4.28;;;11.40;99.90;;;;;;4996600;28;89863;-31
2022/11/03 07:53:34;;;;;;;;;;;11.40;99.90;;;;;;4997033;28;90290;-31
2022/11/03 07:56:00;;;;;;;8.77;3.97;;;11.50;99.90;;;;;;4998143;28;90070;-29
2022/11/03 07:58:39;;;;;;;8.90;4.82;;;11.60;99.90;;;;;;4998047;28;89418;-33
2022/11/03 08:01:23;;;;;;;7.97;4.70;;;11.50;99.90;;;;;;4995176;28;90115;-31
2022/11/03 08:03:50;;;;;;;13.48;4.75;;;11.60;99.90;;;;;;4988788;28;89553;-31
2022/11/03 08:06:15;;;;;;;12.60;5.43;;;11.60;99.90;;;;;;4996980;28;89582;-29
2022/11/03 08:08:41;;;;;;;12.25;4.63;;;11.60;99.90;;;;;;4997095;28;89800;-30
2022/11/03 08:11:07;;;;;;;10.27;4.97;;;11.70;99.90;;;;;;4996589;28;90142;-32
2022/11/03 08:13:32;;;;;;;5.32;3.22;;;11.70;99.90;;;;;;4997554;28;90051;-29
2022/11/03 08:15:58;;;;;;;13.00;5.57;;;11.70;99.90;;;;;;4996663;28;90577;-31
2022/11/03 08:18:24;;;;;;;9.73;4.03;;;11.70;99.90;;;;;;4996892;28;89601;-32
2022/11/03 08:20:49;;;;;;;12.05;4.30;;;11.80;99.90;;;;;;4996848;28;89408;-30
2022/11/03 08:23:15;;;;;;;15.07;4.82;;;11.90;99.90;;;;;;4998771;28;89712;-29
2022/11/03 08:25:42;;;;;;;13.10;4.10;;;11.80;99.90;;;;;;4999352;28;89641;-30
2022/11/03 08:28:07;;;;;;;7.47;3.80;;;11.80;99.90;;;;;;4999513;28;88384;-31
2022/11/03 08:30:33;;;;;;;11.75;4.70;;;11.90;99.90;;;;;;4998257;28;90038;-30
2022/11/03 08:32:59;;;;;;;12.65;4.70;;;11.90;99.90;;;;;;4999340;28;90271;-28
2022/11/03 08:35:25;;;;;;;9.27;4.45;;;11.90;99.90;;;;;;4998987;28;89980;-28
2022/11/03 08:37:50;;;;;;;9.52;4.70;;;12.00;99.90;;;;;;4999526;28;87988;-30
2022/11/03 08:40:17;;;;;;;10.07;4.53;;;12.00;99.90;;;;;;4998626;28;90176;-29
2022/11/03 08:42:43;;;;;;;8.40;3.85;;;12.10;99.90;;;;;;4998201;28;89361;-29
2022/11/03 08:45:10;;;;;;;8.68;3.78;;;12.20;99.90;;;;;;4999055;28;90661;-29
2022/11/03 08:47:35;;;;;;;17.95;4.43;;;12.20;99.90;;;;;;4999152;28;89712;-29
2022/11/03 08:50:02;;;;;;;12.30;4.38;;;12.20;99.90;;;;;;4998882;28;90002;-32
2022/11/03 08:52:27;;;;;;;15.80;4.72;;;12.30;99.90;;;;;;4999464;28;89741;-30
2022/11/03 08:54:53;;;;;;;14.80;4.80;;;12.40;99.90;;;;;;4997755;28;89536;-32
2022/11/03 08:57:19;;;;;;;7.82;4.72;;;12.40;99.90;;;;;;4999799;28;87985;-30
2022/11/03 08:59:44;;;;;;;7.10;3.97;;;12.50;99.90;;;;;;4998028;28;90188;-30
2022/11/03 09:02:10;;;;;;;11.88;4.05;;;12.60;99.90;;;;;;4987651;28;89801;-30
2022/11/03 09:04:35;;;;;;;8.18;4.00;;;12.60;99.90;;;;;;4997129;28;91312;-30
2022/11/03 09:07:01;;;;;;;12.48;4.13;;;12.60;99.90;;;;;;4997986;28;90062;-29
2022/11/03 09:09:26;;;;;;;7.13;3.45;;;12.70;99.90;;;;;;5006583;28;91593;-28
2022/11/03 09:11:52;;;;;;;11.48;5.53;;;12.70;99.90;;;;;;4999758;28;90162;-30
2022/11/03 09:14:17;;;;;;;21.02;5.28;;;12.80;99.90;;;;;;4999228;28;89722;-31
2022/11/03 09:16:44;;;;;;;8.43;4.97;;;12.80;99.90;;;;;;5007177;28;87763;-28
2022/11/03 09:19:09;;;;;;;10.52;4.03;;;12.80;99.90;;;;;;4999652;28;88887;-33
2022/11/03 09:21:35;;;;;;;8.75;4.85;;;12.90;99.90;;;;;;4998234;28;89636;-29
2022/11/03 09:24:00;;;;;;;7.40;4.30;;;12.90;99.90;;;;;;4998475;28;89671;-29
2022/11/03 09:26:26;;;;;;;13.40;4.70;;;12.90;99.90;;;;;;4998743;28;89045;-29
2022/11/03 09:28:51;;;;;;;6.38;4.05;;;13.00;99.90;;;;;;4997771;28;90292;-29
2022/11/03 09:31:18;;;;;;;15.90;4.00;;;13.00;99.90;;;;;;4997828;28;90361;-31
2022/11/03 09:33:44;;;;;;;15.77;4.30;;;13.10;99.90;;;;;;4997715;28;90270;-28
2022/11/03 09:36:09;;;;;;;15.57;4.43;;;13.10;99.90;;;;;;4998645;28;88090;-32
2022/11/03 09:38:35;;;;;;;7.95;4.00;;;13.20;99.90;;;;;;4998095;28;91924;-28
2022/11/03 09:41:02;;;;;;;11.05;4.43;;;13.20;99.90;;;;;;4997897;28;89922;-27
2022/11/03 09:43:28;;;;;;;10.48;4.13;;;13.30;99.90;;;;;;4997981;28;89646;-29
2022/11/03 09:45:54;;;;;;;12.75;4.65;;;13.40;99.90;;;;;;4998078;28;88884;-28
2022/11/03 09:48:20;;;;;;;7.53;4.07;;;13.50;99.90;;;;;;4999164;28;90136;-30
2022/11/03 09:50:50;;;;;;;9.88;4.10;;;13.60;99.90;;;;;;4998709;28;89844;-31
2022/11/03 09:53:16;;;;;;;6.50;3.58;;;13.80;99.90;;;;;;5001805;28;88813;-31
2022/11/03 09:55:41;;;;;;;12.15;4.68;;;13.90;99.90;;;;;;5000227;28;90027;-30
2022/11/03 09:58:13;;;;;;;10.45;5.07;;;14.10;99.90;;;;;;5001640;28;90914;-31
2022/11/03 10:00:38;;;;;;;8.25;3.88;;;14.20;99.90;;;;;;5001205;28;90632;-30
2022/11/03 10:03:04;;;;;;;8.18;4.07;;;14.20;99.90;;;;;;4987810;28;89665;-30
2022/11/03 10:05:30;;;;;;;10.35;4.03;;;14.40;99.90;;;;;;5001120;28;88815;-29
2022/11/03 10:07:59;;;;;;;10.52;4.00;;;14.40;99.90;;;;;;5001302;28;90173;-29
2022/11/03 10:10:25;;;;;;;9.65;3.75;;;14.50;99.90;;;;;;5001510;28;90188;-32
2022/11/03 10:12:52;;;;;;;16.63;4.07;;;14.50;99.90;;;;;;5001240;28;89129;-29
2022/11/03 10:15:20;;;;;;;10.32;5.30;;;14.50;99.90;;;;;;5001049;28;88910;-31
2022/11/03 10:17:49;;;;;;;6.80;3.42;;;14.50;99.90;;;;;;5001157;28;91000;-30
2022/11/03 10:20:17;;;;;;;11.90;4.20;;;14.60;99.90;;;;;;5006879;28;91308;-28
2022/11/03 10:22:45;;;;;;;6.03;4.13;;;14.70;99.90;;;;;;5004971;28;90035;-29
2022/11/03 10:25:34;;;;;;;9.82;4.13;;;14.70;99.90;;;;;;5001118;28;89646;-29
2022/11/03 10:28:23;;;;;;;11.10;4.18;;;14.70;99.90;;;;;;5001654;28;90006;-30
2022/11/03 10:30:57;;;;;;;9.18;3.78;;;14.80;99.90;;;;;;5000717;28;89949;-32
2022/11/03 10:33:39;;;;;;;6.78;4.20;;;14.70;99.90;;;;;;5000793;28;89615;-28
2022/11/03 10:36:13;;;;;;;7.05;2.85;;;14.70;99.90;;;;;;5000732;28;90681;-32
2022/11/03 10:38:39;;;;;;;6.20;4.60;;;14.70;99.90;;;;;;5000205;28;89500;-33
2022/11/03 10:41:13;;;;;;;8.35;3.92;;;14.60;99.90;;;;;;5001354;28;90010;-30
2022/11/03 10:43:40;;;;;;;6.03;3.88;;;14.70;99.90;;;;;;5000591;28;89299;-32
2022/11/03 10:46:18;;;;;;;9.45;4.57;;;14.70;99.90;;;;;;5000310;28;88955;-29
2022/11/03 10:48:44;;;;;;;7.05;3.58;;;14.70;99.90;;;;;;5000392;28;90419;-27
2022/11/03 10:51:13;;;;;;;9.10;4.45;;;14.70;99.90;;;;;;5000783;28;89524;-30
2022/11/03 10:53:41;;;;;;;7.55;3.75;;;14.70;99.90;;;;;;5005088;28;89309;-29
2022/11/03 10:56:07;;;;;;;6.97;4.17;;;14.80;99.90;;;;;;5008503;28;88131;-30
2022/11/03 10:58:33;;;;;;;14.00;3.45;;;14.70;99.90;;;;;;5000837;28;90564;-30
2022/11/03 11:00:59;;;;;;;7.78;3.47;;;14.70;99.90;;;;;;4998136;28;89748;-32
2022/11/03 11:03:25;;;;;;;10.45;3.58;;;14.70;99.90;;;;;;4988521;28;89450;-30
2022/11/03 11:05:50;;;;;;;11.45;4.03;;;14.70;99.90;;;;;;5000705;28;90197;-29
2022/11/03 11:08:21;;;;;;;8.77;3.72;;;14.80;99.90;;;;;;4999335;28;90239;-29
2022/11/03 11:10:47;;;;;;;8.82;3.40;;;14.90;99.90;;;;;;5001163;28;90572;-28
2022/11/03 11:13:17;;;;;;;9.57;3.67;;;15.10;99.90;;;;;;5000470;28;90198;-30
2022/11/03 11:15:45;;;;;;;8.07;3.28;;;15.20;99.90;;;;;;5000078;28;89214;-33
2022/11/03 11:18:30;;;;;;;4.35;2.70;;;15.30;99.90;;;;;;5000711;28;90311;-28
2022/11/03 11:21:20;;;;;;;15.38;3.58;;;15.40;99.90;;;;;;4999253;28;88840;-29
2022/11/03 11:23:47;;;;;;;12.00;3.88;;;15.50;99.90;;;;;;4999140;28;89532;-31
2022/11/03 11:26:29;;;;;;;7.93;2.70;;;15.50;99.90;;;;;;5000409;28;88874;-31
2022/11/03 11:29:10;;;;;;;4.63;3.53;;;15.60;99.90;;;;;;5000405;28;90686;-30
2022/11/03 11:31:44;;;;;;;5.88;3.03;;;15.60;99.90;;;;;;4999981;28;89372;-32
2022/11/03 11:34:17;;;;;;;10.35;3.90;;;15.60;99.90;;;;;;4999702;28;90392;-28
2022/11/03 11:36:45;;;;;;;9.07;3.35;;;15.60;99.90;;;;;;4999890;28;91131;-31
2022/11/03 11:39:19;;;;;;;7.28;2.90;;;15.50;99.90;;;;;;4999846;28;90469;-30
2022/11/03 11:42:11;;;;;;;7.78;3.33;;;15.50;99.90;;;;;;4999432;28;89863;-31
2022/11/03 11:44:46;;;;;;;4.93;2.85;;;15.50;99.90;;;;;;4999563;28;89588;-30
2022/11/03 11:47:30;;;;;;;8.40;3.80;;;15.40;99.90;;;;;;5000128;28;89477;-29
2022/11/03 11:50:05;;;;;;;8.38;3.53;;;15.40;99.90;;;;;;4999392;28;89388;-30
2022/11/03 11:52:35;;;;;;;10.88;3.53;;;15.30;99.90;;;;;;4999434;28;90483;-29
2022/11/03 11:55:02;;;;;;;8.15;3.05;;;15.40;99.90;;;;;;5011842;28;89773;-32
2022/11/03 11:57:32;;;;;;;4.90;1.98;;;15.40;99.90;;;;;;4999707;28;88412;-30
2022/11/03 11:59:58;;;;;;;4.75;3.17;;;15.30;99.90;;;;;;4999010;28;90941;-31
2022/11/03 12:02:29;;;;;;;7.13;3.55;;;15.30;99.90;;;;;;4985272;28;90934;-30
2022/11/03 12:05:03;;;;;;;5.32;2.90;;;15.30;99.90;;;;;;4985871;28;90978;-30
2022/11/03 12:07:32;;;;;;;6.07;2.65;;;15.30;99.90;;;;;;4999862;28;89022;-33
2022/11/03 12:10:09;;;;;;;5.72;2.97;;;15.20;99.90;;;;;;4998539;28;90432;-31
2022/11/03 12:12:35;;;;;;;6.25;2.85;;;15.20;99.90;;;;;;5000010;28;90123;-29
2022/11/03 12:15:00;;;;;;;5.40;2.90;;;15.20;99.90;;;;;;4997723;28;90095;-30
2022/11/03 12:17:26;;;;;;;5.90;2.75;;;15.20;99.90;;;;;;5000135;28;88944;-30
2022/11/03 12:19:53;;;;;;;8.45;3.25;;;15.10;99.90;;;;;;4999458;28;91020;-31
2022/11/03 12:22:27;;;;;;;5.00;2.45;;;15.20;99.90;;;;;;4999082;28;90019;-29
2022/11/03 12:24:54;;;;;;;9.80;3.17;;;15.10;99.90;;;;;;4999348;28;89361;-31
2022/11/03 12:27:25;;;;;;;4.90;3.00;;;15.00;99.90;;;;;;4999321;28;90016;-31
2022/11/03 12:29:56;;;;;;;5.93;2.90;;;14.90;99.90;;;;;;4999423;28;91594;-30
2022/11/03 12:32:23;;;;;;;5.80;2.60;;;15.00;99.90;;;;;;4999541;28;89648;-30
2022/11/03 12:34:48;;;;;;;10.95;3.17;;;15.00;99.90;;;;;;4998384;28;89881;-29
2022/11/03 12:37:14;;;;;;;3.78;2.85;;;14.90;99.90;;;;;;4999548;28;89438;-32
2022/11/03 12:39:40;;;;;;;10.07;2.97;;;15.10;99.90;;;;;;4998545;28;90141;-32
2022/11/03 12:42:06;;;;;;;3.08;1.90;;;15.00;99.90;;;;;;4999134;28;89908;-31
2022/11/03 12:44:32;;;;;;;7.80;2.42;;;15.10;99.90;;;;;;4999266;28;89498;-30
2022/11/03 12:46:58;;;;;;;5.35;2.53;;;15.00;99.90;;;;;;4998246;28;89521;-31
2022/11/03 12:49:24;;;;;;;6.03;2.78;;;15.00;99.90;;;;;;4981232;28;90308;-32
2022/11/03 12:51:49;;;;;;;6.63;3.05;;;15.10;99.90;;;;;;4991585;28;92007;-31
2022/11/03 12:54:15;;;;;;;5.78;2.67;;;15.00;99.90;;;;;;4995273;28;90640;-31
2022/11/03 12:56:41;;;;;;;7.53;2.78;;;15.00;99.90;;;;;;4982416;28;88423;-32
2022/11/03 12:59:07;;;;;;;7.15;3.47;;;15.00;99.90;;;;;;4980848;28;89832;-31
2022/11/03 13:01:32;;;;;;;3.85;2.67;;;15.00;99.90;;;;;;4989592;28;90593;-30
2022/11/03 13:03:58;;;;;;;6.25;2.55;;;15.00;99.90;;;;;;4975215;28;89813;-30
2022/11/03 13:06:24;;;;;;;6.82;2.85;;;15.10;99.90;;;;;;4995124;28;89436;-32
2022/11/03 13:08:50;;;;;;;9.90;3.60;;;15.00;99.90;;;;;;4996785;28;90171;-30
2022/11/03 13:14:00;;;;;;;7.90;2.63;;;15.10;99.90;;;;;;4996177;28;90281;-29